Hercules I — SVA7380 — position and weather

sailwx.info

Track history (hours):
 
Tides and Currents Weather Stations Pressure Air Temp Water Temp Dewpoint Dewpoint Depression Visibility Wind Speed Wind Dir Waves Ship Positions

Hercules I

Last reported at 2017-Oct-20 07:13 UTC. Time now 2017-Oct-20 19:49 UTC.
Position N 38°11' E 024°07'.

Length 89 m; draft 3.8 m.

Type: Cargo ship. MMSI: 241503000.

Date/timePositionNaut miles runAvg speedWind from/ knotsBaromVisibWave heightAir tempDewpointWater temp
2017-Oct-20 07:13N 38°11' E 024°07'2 8.3
2017-Oct-20 06:56N 38°09' E 024°08'4 8.3
2017-Oct-20 06:25N 38°05' E 024°10'4 8.5
2017-Oct-20 05:59N 38°02' E 024°12'28 4.2
2017-Oct-19 23:24N 38°29' E 024°22'8 8.8
2017-Oct-19 22:32N 38°35' E 024°17'0 8.9
2017-Oct-19 22:30N 38°35' E 024°17'71 8.6
2017-Oct-19 14:15N 39°37' E 023°32'3 9.3
2017-Oct-19 13:58N 39°39' E 023°30'  
2017-Oct-16 06:46N 39°41' E 023°30'  
2017-Oct-14 01:59N 38°11' E 024°07'4 7.6
2017-Oct-14 01:30N 38°08' E 024°09'4 8.2
2017-Oct-14 01:00N 38°04' E 024°11'4 8.0
2017-Oct-14 00:29N 38°00' E 024°12'  
2017-Oct-10 10:54N 38°11' E 024°07'3 8.6
2017-Oct-10 10:30N 38°08' E 024°09'4 8.5
2017-Oct-10 10:00N 38°04' E 024°11'  
Track history (hours):
 
Tides and Currents Weather Stations Pressure Air Temp Water Temp Dewpoint Dewpoint Depression Visibility Wind Speed Wind Dir Waves Ship Positions

Hercules I

Last reported at 2017-Oct-20 07:13 UTC. Time now 2017-Oct-20 19:49 UTC.
Position N 38°11' E 024°07'.

Length 89 m; draft 3.8 m.

Type: Cargo ship. MMSI: 241503000.

Date/timePositionNaut miles runAvg speedWind from/ knotsBaromVisibWave heightAir tempDewpointWater temp
2017-Oct-20 07:13N 38°11' E 024°07'2 8.3
2017-Oct-20 06:56N 38°09' E 024°08'4 8.3
2017-Oct-20 06:25N 38°05' E 024°10'4 8.5
2017-Oct-20 05:59N 38°02' E 024°12'28 4.2
2017-Oct-19 23:24N 38°29' E 024°22'8 8.8
2017-Oct-19 22:32N 38°35' E 024°17'0 8.9
2017-Oct-19 22:30N 38°35' E 024°17'71 8.6
2017-Oct-19 14:15N 39°37' E 023°32'3 9.3
2017-Oct-19 13:58N 39°39' E 023°30'  
2017-Oct-16 06:46N 39°41' E 023°30'  
2017-Oct-14 01:59N 38°11' E 024°07'4 7.6
2017-Oct-14 01:30N 38°08' E 024°09'4 8.2
2017-Oct-14 01:00N 38°04' E 024°11'4 8.0
2017-Oct-14 00:29N 38°00' E 024°12'  
2017-Oct-10 10:54N 38°11' E 024°07'3 8.6
2017-Oct-10 10:30N 38°08' E 024°09'4 8.5
2017-Oct-10 10:00N 38°04' E 024°11'  

Dump ship's entire track history